Time;durP1;ratioP1;P1;durP2;ratioP2;P2;SDS_P1;SDS_P2;PMS_P1;PMS_P2;Temp;Humidity;BMP_temperature;BMP_pressure;BME280_temperature;BME280_humidity;BME280_pressure;Samples;Min_cycle;Max_cycle;Signal;HPM_P1;HPM_P2
2024/01/10 00:01:34;;;;;;;61.07;25.47;;;;;;;;;;5033855;28;20033;-72
2024/01/10 00:04:00;;;;;;;57.27;26.53;;;;;;;;;;5033762;28;20036;-71
2024/01/10 00:06:26;;;;;;;53.90;22.73;;;;;;;;;;5052096;28;20060;-72
2024/01/10 00:08:51;;;;;;;50.07;23.37;;;;;;;;;;5053896;28;20040;-71
2024/01/10 00:11:17;;;;;;;59.93;23.20;;;;;;;;;;5053036;28;20028;-72
2024/01/10 00:13:43;;;;;;;78.03;27.83;;;;;;;;;;5056647;28;20043;-73
2024/01/10 00:16:11;;;;;;;50.57;20.77;;;;;;;;;;5056913;28;20021;-71
2024/01/10 00:18:37;;;;;;;58.03;23.17;;;;;;;;;;5056579;28;20327;-73
2024/01/10 00:21:02;;;;;;;60.40;23.97;;;;;;;;;;5055397;28;20041;-73
2024/01/10 00:23:28;;;;;;;61.70;24.17;;;;;;;;;;5056461;28;20088;-72
2024/01/10 00:25:54;;;;;;;51.13;23.20;;;;;;;;;;5055064;28;20052;-72
2024/01/10 00:28:20;;;;;;;53.30;21.70;;;;;;;;;;5052090;28;20096;-72
2024/01/10 00:30:48;;;;;;;53.83;21.10;;;;;;;;;;5035275;28;20104;-73
2024/01/10 00:33:14;;;;;;;73.30;24.23;;;;;;;;;;5034632;28;20048;-74
2024/01/10 00:35:39;;;;;;;57.27;24.07;;;;;;;;;;5036464;28;20490;-72
2024/01/10 00:38:05;;;;;;;54.60;22.67;;;;;;;;;;5035049;28;20046;-71
2024/01/10 00:40:31;;;;;;;56.80;21.97;;;;;;;;;;5040541;28;20028;-72
2024/01/10 00:42:58;;;;;;;43.03;19.73;;;;;;;;;;5055315;28;20029;-72
2024/01/10 00:45:24;;;;;;;49.33;23.30;;;;;;;;;;5055476;28;20477;-72
2024/01/10 00:47:50;;;;;;;59.83;23.80;;;;;;;;;;5056170;28;20507;-72
2024/01/10 00:50:16;;;;;;;55.90;22.07;;;;;;;;;;5056592;28;20033;-72
2024/01/10 00:52:42;;;;;;;70.50;27.50;;;;;;;;;;5046566;28;20033;-71
2024/01/10 00:55:08;;;;;;;62.00;25.80;;;;;;;;;;5035825;28;20056;-72
2024/01/10 00:57:34;;;;;;;65.73;29.07;;;;;;;;;;5034650;28;20449;-72
2024/01/10 00:59:59;;;;;;;69.27;26.50;;;;;;;;;;5035073;28;20421;-73
2024/01/10 01:02:27;;;;;;;54.13;23.80;;;;;;;;;;5033897;28;20148;-73
2024/01/10 01:04:52;;;;;;;66.40;27.50;;;;;;;;;;5040068;28;20044;-70
2024/01/10 01:07:18;;;;;;;56.00;26.30;;;;;;;;;;5054258;28;20037;-72
2024/01/10 01:09:44;;;;;;;70.37;25.30;;;;;;;;;;5052897;28;20032;-72
2024/01/10 01:12:09;;;;;;;61.13;25.37;;;;;;;;;;5053853;28;20463;-71
2024/01/10 01:14:35;;;;;;;63.57;24.67;;;;;;;;;;5053821;28;20033;-68
2024/01/10 01:17:01;;;;;;;68.93;26.10;;;;;;;;;;5050318;28;20484;-69
2024/01/10 01:19:26;;;;;;;56.90;23.40;;;;;;;;;;5050894;28;20060;-69
2024/01/10 01:21:52;;;;;;;64.60;24.50;;;;;;;;;;5052796;28;20082;-70
2024/01/10 01:24:17;;;;;;;57.50;24.37;;;;;;;;;;5051300;28;20035;-69
2024/01/10 01:26:43;;;;;;;67.30;24.27;;;;;;;;;;5050866;28;20413;-68
2024/01/10 01:29:09;;;;;;;54.97;23.03;;;;;;;;;;5051620;28;20127;-69
2024/01/10 01:31:35;;;;;;;66.50;26.47;;;;;;;;;;5051442;28;20190;-69
2024/01/10 01:34:00;;;;;;;64.93;24.47;;;;;;;;;;5051112;28;20040;-69
2024/01/10 01:36:26;;;;;;;66.57;25.77;;;;;;;;;;5051155;28;20116;-67
2024/01/10 01:38:51;;;;;;;62.10;23.33;;;;;;;;;;5051070;28;20145;-68
2024/01/10 01:41:17;;;;;;;64.60;24.10;;;;;;;;;;5049987;28;20040;-69
2024/01/10 01:43:43;;;;;;;58.87;24.87;;;;;;;;;;5051673;28;20075;-69
2024/01/10 01:46:09;;;;;;;60.70;25.73;;;;;;;;;;5050028;28;20079;-69
2024/01/10 01:48:35;;;;;;;48.03;24.83;;;;;;;;;;5050391;28;20515;-69
2024/01/10 01:51:05;;;;;;;65.13;26.07;;;;;;;;;;5050036;28;20029;-71
2024/01/10 01:53:31;;;;;;;69.23;26.60;;;;;;;;;;5043685;28;20045;-67
2024/01/10 01:56:00;;;;;;;56.90;23.10;;;;;;;;;;5030977;28;20444;-69
2024/01/10 01:58:26;;;;;;;48.93;23.13;;;;;;;;;;5050255;28;20037;-69
2024/01/10 02:00:52;;;;;;;59.63;24.33;;;;;;;;;;5050191;28;20488;-70
2024/01/10 02:03:17;;;;;;;66.77;24.67;;;;;;;;;;5050236;28;20025;-69
2024/01/10 02:05:43;;;;;;;65.20;26.33;;;;;;;;;;5049815;28;20035;-69
2024/01/10 02:08:08;;;;;;;60.17;24.97;;;;;;;;;;5036483;28;20425;-70
2024/01/10 02:10:35;;;;;;;66.00;24.60;;;;;;;;;;5029848;28;20029;-69
2024/01/10 02:13:01;;;;;;;63.67;23.63;;;;;;;;;;5030188;28;20048;-69
2024/01/10 02:15:27;;;;;;;63.63;26.10;;;;;;;;;;5029655;28;20128;-73
2024/01/10 02:17:54;;;;;;;73.27;26.57;;;;;;;;;;5030240;28;20083;-69
2024/01/10 02:20:21;;;;;;;59.87;25.90;;;;;;;;;;5029704;28;20026;-69
2024/01/10 02:22:47;;;;;;;64.10;27.27;;;;;;;;;;5031029;28;20064;-68
2024/01/10 02:25:13;;;;;;;59.10;24.43;;;;;;;;;;5029945;28;20424;-69
2024/01/10 02:27:40;;;;;;;46.77;23.53;;;;;;;;;;5032923;28;20029;-69
2024/01/10 02:30:08;;;;;;;70.23;29.30;;;;;;;;;;5042757;28;20067;-68
2024/01/10 02:32:33;;;;;;;80.37;30.13;;;;;;;;;;5053573;28;20059;-68
2024/01/10 02:34:59;;;;;;;65.73;27.13;;;;;;;;;;5051320;28;20464;-69
2024/01/10 02:37:25;;;;;;;57.53;24.97;;;;;;;;;;5049668;28;20029;-68
2024/01/10 02:39:51;;;;;;;61.33;27.20;;;;;;;;;;5032628;28;20055;-68
2024/01/10 02:42:17;;;;;;;61.93;25.00;;;;;;;;;;5048167;28;20037;-69
2024/01/10 02:44:43;;;;;;;62.67;25.53;;;;;;;;;;5049352;28;20024;-68
2024/01/10 02:47:09;;;;;;;63.63;27.97;;;;;;;;;;5032394;28;20028;-69
2024/01/10 02:49:35;;;;;;;60.87;26.20;;;;;;;;;;5050538;28;20041;-67
2024/01/10 02:52:01;;;;;;;66.63;27.33;;;;;;;;;;5051139;28;20052;-70
2024/01/10 02:54:26;;;;;;;62.50;23.70;;;;;;;;;;5039145;28;20095;-70
2024/01/10 02:56:52;;;;;;;53.73;26.23;;;;;;;;;;5031901;28;20234;-69
2024/01/10 02:59:18;;;;;;;55.03;24.20;;;;;;;;;;5029031;28;20499;-70
2024/01/10 03:01:43;;;;;;;59.63;22.83;;;;;;;;;;5030736;28;20469;-68
2024/01/10 03:04:10;;;;;;;60.80;24.80;;;;;;;;;;5028840;28;20029;-69
2024/01/10 03:06:35;;;;;;;66.17;28.67;;;;;;;;;;5030206;28;20512;-68
2024/01/10 03:09:02;;;;;;;61.87;24.03;;;;;;;;;;5028765;28;20037;-70
2024/01/10 03:11:28;;;;;;;61.97;26.13;;;;;;;;;;5028805;28;20037;-70
2024/01/10 03:14:03;;;;;;;65.23;27.00;;;;;;;;;;5030394;28;20115;-70
2024/01/10 03:16:32;;;;;;;52.57;27.47;;;;;;;;;;5028750;28;20488;-70
2024/01/10 03:18:57;;;;;;;62.60;25.07;;;;;;;;;;5044073;28;20044;-68
2024/01/10 03:21:24;;;;;;;52.37;23.53;;;;;;;;;;5048219;28;20404;-69
2024/01/10 03:23:51;;;;;;;63.27;25.50;;;;;;;;;;5048571;28;20025;-69
2024/01/10 03:26:17;;;;;;;55.63;23.37;;;;;;;;;;5048269;28;20111;-69
2024/01/10 03:28:42;;;;;;;70.23;26.80;;;;;;;;;;5048646;28;20123;-69
2024/01/10 03:31:11;;;;;;;43.60;19.33;;;;;;;;;;5031751;28;20033;-69
2024/01/10 03:33:36;;;;;;;51.10;22.07;;;;;;;;;;5029208;28;20056;-70
2024/01/10 03:36:02;;;;;;;56.00;19.90;;;;;;;;;;5030588;28;20029;-68
2024/01/10 03:38:28;;;;;;;53.73;24.93;;;;;;;;;;5012129;28;20048;-68
2024/01/10 03:40:55;;;;;;;71.33;25.50;;;;;;;;;;5030283;28;20037;-69
2024/01/10 03:43:21;;;;;;;66.13;27.13;;;;;;;;;;5036712;28;20151;-67
2024/01/10 03:45:46;;;;;;;58.70;23.97;;;;;;;;;;5031603;28;20108;-69
2024/01/10 03:48:12;;;;;;;50.10;21.70;;;;;;;;;;5033019;28;20021;-68
2024/01/10 03:50:37;;;;;;;51.40;23.43;;;;;;;;;;5033985;28;20037;-68
2024/01/10 03:53:03;;;;;;;56.47;23.70;;;;;;;;;;5039886;28;20049;-68
2024/01/10 03:55:29;;;;;;;67.23;23.30;;;;;;;;;;5053601;28;20029;-69
2024/01/10 03:57:56;;;;;;;47.60;21.03;;;;;;;;;;5052315;28;20036;-69
2024/01/10 04:00:22;;;;;;;47.83;24.03;;;;;;;;;;5052077;28;20028;-69
2024/01/10 04:02:47;;;;;;;46.77;23.37;;;;;;;;;;5042259;28;20087;-70
2024/01/10 04:05:13;;;;;;;54.23;22.70;;;;;;;;;;5032457;28;20029;-68
2024/01/10 04:07:46;;;;;;;51.47;21.37;;;;;;;;;;5032656;28;20056;-69
2024/01/10 04:10:13;;;;;;;59.40;24.80;;;;;;;;;;5033314;28;20084;-69
2024/01/10 04:12:45;;;;;;;43.23;20.80;;;;;;;;;;5032232;28;20064;-68
2024/01/10 04:15:12;;;;;;;52.17;20.95;;;;;;;;;;5031983;28;20128;-69
2024/01/10 04:17:38;;;;;;;55.20;23.70;;;;;;;;;;5032611;28;20392;-70
2024/01/10 04:20:04;;;;;;;47.43;21.13;;;;;;;;;;5032085;28;20392;-68
2024/01/10 04:22:30;;;;;;;60.23;23.63;;;;;;;;;;5031974;28;20180;-70
2024/01/10 04:24:57;;;;;;;52.77;23.37;;;;;;;;;;5033321;28;20544;-69
2024/01/10 04:27:23;;;;;;;49.27;21.27;;;;;;;;;;5033035;28;20159;-69
2024/01/10 04:29:49;;;;;;;57.23;22.60;;;;;;;;;;5033380;28;20108;-69
2024/01/10 04:32:14;;;;;;;62.30;23.47;;;;;;;;;;5032379;28;20017;-69
2024/01/10 04:34:40;;;;;;;51.57;20.83;;;;;;;;;;5033213;28;20034;-69
2024/01/10 04:37:09;;;;;;;52.73;23.43;;;;;;;;;;5033071;28;20068;-69
2024/01/10 04:39:35;;;;;;;47.73;20.17;;;;;;;;;;5015366;28;20037;-69
2024/01/10 04:42:01;;;;;;;45.27;19.87;;;;;;;;;;5033333;28;20381;-68
2024/01/10 04:44:27;;;;;;;54.07;25.77;;;;;;;;;;5038552;28;20040;-69
2024/01/10 04:46:53;;;;;;;51.03;21.23;;;;;;;;;;5031250;28;20029;-69
2024/01/10 04:49:18;;;;;;;51.30;20.03;;;;;;;;;;5032574;28;20472;-70
2024/01/10 04:51:45;;;;;;;41.53;19.90;;;;;;;;;;5031333;28;20021;-69
2024/01/10 04:54:11;;;;;;;39.73;19.20;;;;;;;;;;5052047;28;20045;-69
2024/01/10 04:56:36;;;;;;;51.63;20.47;;;;;;;;;;5052221;28;20033;-69
2024/01/10 04:59:02;;;;;;;64.43;23.83;;;;;;;;;;5052845;28;20017;-69
2024/01/10 05:01:28;;;;;;;60.40;22.07;;;;;;;;;;5051321;28;20582;-69
2024/01/10 05:03:54;;;;;;;56.70;24.03;;;;;;;;;;5035180;28;20029;-69
2024/01/10 05:06:20;;;;;;;50.43;24.07;;;;;;;;;;5032525;28;20091;-68
2024/01/10 05:08:46;;;;;;;49.13;21.00;;;;;;;;;;5031232;28;20029;-68
2024/01/10 05:11:12;;;;;;;44.87;23.50;;;;;;;;;;5030921;28;20477;-68
2024/01/10 05:13:39;;;;;;;43.10;20.63;;;;;;;;;;5045660;28;20106;-69
2024/01/10 05:16:05;;;;;;;57.30;23.17;;;;;;;;;;5050502;28;20028;-70
2024/01/10 05:18:30;;;;;;;67.17;25.17;;;;;;;;;;5050789;28;20024;-68
2024/01/10 05:20:57;;;;;;;46.47;19.30;;;;;;;;;;5052026;28;20450;-68
2024/01/10 05:23:23;;;;;;;50.67;21.73;;;;;;;;;;5038820;28;20075;-69
2024/01/10 05:25:50;;;;;;;37.13;19.40;;;;;;;;;;5030734;28;20029;-71
2024/01/10 05:28:16;;;;;;;54.07;21.80;;;;;;;;;;5030852;28;20033;-70
2024/01/10 05:30:44;;;;;;;43.33;18.83;;;;;;;;;;5030555;28;20481;-68
2024/01/10 05:33:10;;;;;;;44.57;20.30;;;;;;;;;;5030721;28;20021;-69
2024/01/10 05:35:37;;;;;;;51.47;21.50;;;;;;;;;;5013938;28;20037;-70
2024/01/10 05:38:03;;;;;;;43.80;19.10;;;;;;;;;;5030497;28;20108;-69
2024/01/10 05:40:32;;;;;;;47.23;19.47;;;;;;;;;;5030418;28;20172;-70
2024/01/10 05:42:59;;;;;;;44.53;19.70;;;;;;;;;;5032226;28;20068;-68
2024/01/10 05:45:25;;;;;;;39.60;17.93;;;;;;;;;;5031665;28;20017;-69
2024/01/10 05:47:51;;;;;;;47.37;20.90;;;;;;;;;;5031767;28;20083;-69
2024/01/10 05:50:17;;;;;;;47.33;20.33;;;;;;;;;;5044187;28;20056;-70
2024/01/10 05:52:43;;;;;;;49.93;17.00;;;;;;;;;;5031440;28;20380;-69
2024/01/10 05:55:09;;;;;;;57.87;23.63;;;;;;;;;;5030073;28;20037;-70
2024/01/10 05:57:39;;;;;;;50.53;20.80;;;;;;;;;;5029835;28;20029;-69
2024/01/10 06:00:09;;;;;;;60.03;19.83;;;;;;;;;;5043127;28;20403;-70
2024/01/10 06:02:38;;;;;;;44.43;18.73;;;;;;;;;;5050853;28;20029;-69
2024/01/10 06:05:08;;;;;;;47.20;18.37;;;;;;;;;;5050005;28;20433;-69
2024/01/10 06:07:35;;;;;;;50.60;18.20;;;;;;;;;;5049428;28;20025;-69
2024/01/10 06:10:01;;;;;;;38.73;18.70;;;;;;;;;;5031947;28;20033;-69
2024/01/10 06:12:27;;;;;;;43.33;17.07;;;;;;;;;;5049844;28;20060;-71
2024/01/10 06:14:52;;;;;;;42.73;17.63;;;;;;;;;;5051580;28;20103;-69
2024/01/10 06:17:18;;;;;;;49.23;20.77;;;;;;;;;;5051375;28;20021;-69
2024/01/10 06:19:45;;;;;;;44.73;19.03;;;;;;;;;;5039838;28;20099;-68
2024/01/10 06:22:11;;;;;;;55.80;18.53;;;;;;;;;;5031386;28;20212;-70
2024/01/10 06:24:38;;;;;;;42.73;16.37;;;;;;;;;;5031497;28;20121;-69
2024/01/10 06:27:05;;;;;;;49.83;17.93;;;;;;;;;;5030262;28;20109;-70
2024/01/10 06:29:31;;;;;;;41.57;17.37;;;;;;;;;;5015578;28;20469;-70
2024/01/10 06:31:57;;;;;;;41.00;15.57;;;;;;;;;;5024576;28;20033;-68
2024/01/10 06:34:24;;;;;;;48.30;18.63;;;;;;;;;;5043263;28;20030;-68
2024/01/10 06:36:49;;;;;;;49.83;18.47;;;;;;;;;;5042649;28;20028;-70
2024/01/10 06:39:16;;;;;;;45.90;17.87;;;;;;;;;;5049611;28;20077;-68
2024/01/10 06:41:42;;;;;;;44.80;19.77;;;;;;;;;;5050030;28;20048;-71
2024/01/10 06:44:08;;;;;;;45.33;21.67;;;;;;;;;;5047712;28;20056;-69
2024/01/10 06:46:34;;;;;;;46.70;20.83;;;;;;;;;;5036790;28;20023;-71
2024/01/10 06:49:00;;;;;;;43.40;19.63;;;;;;;;;;5042188;28;20032;-68
2024/01/10 06:51:26;;;;;;;38.03;17.67;;;;;;;;;;5034964;28;20033;-70
2024/01/10 06:53:52;;;;;;;44.93;19.37;;;;;;;;;;5037327;28;20052;-69
2024/01/10 06:56:18;;;;;;;47.20;17.07;;;;;;;;;;5032622;28;20021;-68
2024/01/10 06:58:46;;;;;;;43.07;16.70;;;;;;;;;;5038553;28;20140;-68
2024/01/10 07:01:13;;;;;;;51.60;17.80;;;;;;;;;;5034510;28;20056;-69
2024/01/10 07:03:40;;;;;;;44.27;18.57;;;;;;;;;;5044371;28;20029;-70
2024/01/10 07:06:05;;;;;;;55.97;20.17;;;;;;;;;;5036507;28;20503;-71
2024/01/10 07:08:31;;;;;;;52.47;21.87;;;;;;;;;;5046339;28;20029;-69
2024/01/10 07:10:57;;;;;;;36.57;17.17;;;;;;;;;;5042388;28;20029;-69
2024/01/10 07:13:23;;;;;;;50.37;20.07;;;;;;;;;;5037645;28;20039;-70
2024/01/10 07:15:50;;;;;;;48.70;19.27;;;;;;;;;;5044847;28;20021;-69
2024/01/10 07:18:16;;;;;;;43.77;18.80;;;;;;;;;;5042320;28;20033;-69
2024/01/10 07:20:42;;;;;;;36.93;16.03;;;;;;;;;;5035081;28;20037;-68
2024/01/10 07:23:07;;;;;;;40.40;18.53;;;;;;;;;;5036832;28;20025;-70
2024/01/10 07:25:33;;;;;;;44.10;17.07;;;;;;;;;;5037250;28;20028;-69
2024/01/10 07:27:59;;;;;;;44.20;17.97;;;;;;;;;;5040780;28;20055;-70
2024/01/10 07:30:26;;;;;;;54.47;19.63;;;;;;;;;;5029614;28;20060;-68
2024/01/10 07:32:52;;;;;;;48.33;19.77;;;;;;;;;;5041472;28;20123;-71
2024/01/10 07:35:18;;;;;;;39.67;16.00;;;;;;;;;;5028146;28;20570;-71
2024/01/10 07:37:44;;;;;;;37.13;17.63;;;;;;;;;;5027207;28;20060;-70
2024/01/10 07:40:13;;;;;;;40.13;16.47;;;;;;;;;;5042185;28;21222;-69
2024/01/10 07:42:39;;;;;;;44.53;20.20;;;;;;;;;;5040616;28;20037;-69
2024/01/10 07:45:05;;;;;;;43.87;18.70;;;;;;;;;;5038189;28;20543;-69
2024/01/10 07:47:37;;;;;;;41.97;18.10;;;;;;;;;;5038583;28;20111;-70
2024/01/10 07:50:15;;;;;;;42.60;18.73;;;;;;;;;;5040656;28;20754;-70
2024/01/10 07:52:42;;;;;;;44.03;17.97;;;;;;;;;;5029881;28;20074;-70
2024/01/10 07:55:08;;;;;;;48.07;18.60;;;;;;;;;;5022812;28;20038;-68
2024/01/10 07:57:34;;;;;;;51.57;21.27;;;;;;;;;;5017177;28;20041;-71
2024/01/10 07:59:59;;;;;;;28.80;15.40;;;;;;;;;;5007670;28;20079;-70
2024/01/10 08:02:25;;;;;;;36.57;17.93;;;;;;;;;;5024752;28;20556;-69
2024/01/10 08:04:52;;;;;;;47.47;19.00;;;;;;;;;;5032220;28;20144;-70
2024/01/10 08:07:17;;;;;;;45.93;17.57;;;;;;;;;;5029148;28;20106;-73
2024/01/10 08:09:43;;;;;;;39.67;14.63;;;;;;;;;;5029872;28;20116;-69
2024/01/10 08:12:09;;;;;;;41.00;18.53;;;;;;;;;;5038752;28;20095;-70
2024/01/10 08:14:34;;;;;;;30.33;16.50;;;;;;;;;;5026237;28;20434;-71
2024/01/10 08:17:00;;;;;;;35.10;14.10;;;;;;;;;;5012962;28;20696;-69
2024/01/10 08:19:26;;;;;;;37.83;15.13;;;;;;;;;;5027451;28;20025;-71
2024/01/10 08:21:56;;;;;;;45.37;18.10;;;;;;;;;;5026124;28;20496;-69
2024/01/10 08:24:22;;;;;;;37.27;15.93;;;;;;;;;;5009715;28;20183;-68
2024/01/10 08:26:51;;;;;;;39.20;15.60;;;;;;;;;;5032584;28;20077;-71
2024/01/10 08:29:18;;;;;;;42.87;15.47;;;;;;;;;;5035340;28;20140;-70
2024/01/10 08:31:45;;;;;;;34.20;15.03;;;;;;;;;;5034108;28;20037;-69
2024/01/10 08:34:11;;;;;;;39.80;15.97;;;;;;;;;;5043009;28;20117;-71
2024/01/10 08:36:38;;;;;;;47.60;18.33;;;;;;;;;;5040849;28;20037;-70
2024/01/10 08:39:04;;;;;;;47.10;16.37;;;;;;;;;;5043002;28;20029;-70
2024/01/10 08:41:30;;;;;;;27.27;14.10;;;;;;;;;;5040538;28;20026;-71
2024/01/10 08:43:56;;;;;;;36.37;15.80;;;;;;;;;;5041364;28;20765;-71
2024/01/10 08:46:24;;;;;;;54.73;18.67;;;;;;;;;;5024639;28;20036;-69
2024/01/10 08:48:51;;;;;;;31.03;16.87;;;;;;;;;;5036480;28;20029;-70
2024/01/10 08:51:17;;;;;;;40.87;17.50;;;;;;;;;;5044086;28;20504;-72
2024/01/10 08:53:44;;;;;;;43.93;17.43;;;;;;;;;;5024177;28;20111;-69
2024/01/10 08:56:10;;;;;;;37.60;16.87;;;;;;;;;;5034532;28;20045;-70
2024/01/10 08:58:36;;;;;;;36.50;16.67;;;;;;;;;;5023718;28;20029;-70
2024/01/10 09:01:04;;;;;;;55.67;17.90;;;;;;;;;;5025794;28;20036;-69
2024/01/10 09:03:30;;;;;;;33.90;15.80;;;;;;;;;;5024422;28;20150;-70
2024/01/10 09:05:55;;;;;;;40.73;17.50;;;;;;;;;;5031399;28;20036;-71
2024/01/10 09:08:21;;;;;;;49.87;18.30;;;;;;;;;;5035419;28;20435;-71
2024/01/10 09:10:49;;;;;;;40.23;18.13;;;;;;;;;;5031073;28;20422;-67
2024/01/10 09:13:17;;;;;;;37.17;16.03;;;;;;;;;;5026077;28;20523;-68
2024/01/10 09:15:46;;;;;;;42.70;17.67;;;;;;;;;;5012994;28;20033;-68
2024/01/10 09:18:12;;;;;;;33.70;15.17;;;;;;;;;;5020396;28;20021;-70
2024/01/10 09:20:38;;;;;;;44.73;18.67;;;;;;;;;;5037415;28;20030;-69
2024/01/10 09:23:04;;;;;;;48.23;17.63;;;;;;;;;;5034153;28;20311;-69
2024/01/10 09:25:29;;;;;;;41.83;18.37;;;;;;;;;;5034021;28;20144;-71
2024/01/10 09:27:57;;;;;;;35.87;16.27;;;;;;;;;;5039256;28;20404;-71
2024/01/10 09:30:23;;;;;;;42.90;18.03;;;;;;;;;;5037481;28;20033;-69
2024/01/10 09:32:49;;;;;;;42.03;17.40;;;;;;;;;;5031878;28;20158;-67
2024/01/10 09:35:15;;;;;;;46.73;18.43;;;;;;;;;;5042145;28;20052;-68
2024/01/10 09:37:41;;;;;;;51.63;18.37;;;;;;;;;;5015021;28;20033;-72
2024/01/10 09:40:10;;;;;;;43.87;18.63;;;;;;;;;;5028038;28;20176;-69
2024/01/10 09:42:37;;;;;;;47.67;18.70;;;;;;;;;;5037172;28;20052;-75
2024/01/10 09:45:09;;;;;;;46.63;19.07;;;;;;;;;;5036640;28;20120;-71
2024/01/10 09:47:43;;;;;;;51.00;21.13;;;;;;;;;;5041294;28;20422;-69
2024/01/10 09:50:10;;;;;;;40.53;18.40;;;;;;;;;;5032976;28;20051;-69
2024/01/10 09:53:13;;;;;;;43.77;18.27;;;;;;;;;;5038410;28;20044;-70
2024/01/10 09:55:38;;;;;;;70.17;26.10;;;;;;;;;;5038604;28;20025;-70
2024/01/10 09:58:11;;;;;;;45.50;18.20;;;;;;;;;;5036792;28;20380;-71
2024/01/10 10:00:37;;;;;;;53.03;20.53;;;;;;;;;;5013797;28;20230;-70
2024/01/10 10:03:10;;;;;;;49.03;18.73;;;;;;;;;;5031191;28;20091;-73
2024/01/10 10:05:37;;;;;;;42.97;19.40;;;;;;;;;;5032599;28;20025;-70
2024/01/10 10:08:03;;;;;;;41.70;17.40;;;;;;;;;;5031998;28;20087;-69
2024/01/10 10:10:29;;;;;;;53.80;19.37;;;;;;;;;;5041051;28;20091;-70
2024/01/10 10:12:58;;;;;;;58.20;19.07;;;;;;;;;;5033814;28;20021;-69
2024/01/10 10:15:29;;;;;;;39.73;17.50;;;;;;;;;;5037479;28;20029;-71
2024/01/10 10:17:55;;;;;;;42.00;16.27;;;;;;;;;;5019557;28;20024;-70
2024/01/10 10:20:33;;;;;;;36.13;15.00;;;;;;;;;;5030998;28;20536;-71
2024/01/10 10:23:04;;;;;;;46.87;19.50;;;;;;;;;;5031050;28;20687;-69
2024/01/10 10:25:32;;;;;;;49.53;18.27;;;;;;;;;;5037586;28;20025;-70
2024/01/10 10:28:01;;;;;;;54.33;17.83;;;;;;;;;;5028745;28;20440;-69
2024/01/10 10:30:33;;;;;;;40.40;17.03;;;;;;;;;;5034719;28;20028;-72
2024/01/10 10:33:04;;;;;;;;;;;;;;;;;;5038019;28;20147;-70
2024/01/10 10:35:32;;;;;;;36.37;16.07;;;;;;;;;;5043910;28;20306;-70
2024/01/10 10:37:58;;;;;;;38.23;15.03;;;;;;;;;;5035498;28;20029;-70
2024/01/10 10:40:24;;;;;;;39.00;15.00;;;;;;;;;;5026815;28;20036;-70
2024/01/10 10:42:56;;;;;;;36.90;16.37;;;;;;;;;;5037477;28;20025;-70
2024/01/10 10:45:29;;;;;;;83.07;23.00;;;;;;;;;;5039659;28;20021;-70
2024/01/10 10:48:00;;;;;;;42.53;16.23;;;;;;;;;;5027641;28;20499;-72
2024/01/10 10:50:33;;;;;;;35.97;16.60;;;;;;;;;;5029115;28;20029;-71
2024/01/10 10:53:02;;;;;;;45.70;16.10;;;;;;;;;;5035432;28;20037;-71
2024/01/10 10:55:29;;;;;;;43.17;17.10;;;;;;;;;;5038356;28;20107;-70
2024/01/10 10:57:56;;;;;;;39.83;14.83;;;;;;;;;;5021697;28;20032;-71
2024/01/10 11:00:26;;;;;;;39.90;17.40;;;;;;;;;;5036558;28;20036;-71
2024/01/10 11:02:53;;;;;;;36.57;18.07;;;;;;;;;;5033360;28;20021;-71
2024/01/10 11:05:20;;;;;;;45.80;17.40;;;;;;;;;;5032276;28;20017;-72
2024/01/10 11:07:49;;;;;;;34.87;15.63;;;;;;;;;;5035454;28;20041;-70
2024/01/10 11:10:17;;;;;;;43.60;17.67;;;;;;;;;;5039030;28;20388;-72
2024/01/10 11:13:24;;;;;;;39.37;16.83;;;;;;;;;;5032895;28;20051;-70
2024/01/10 11:16:14;;;;;;;43.40;16.40;;;;;;;;;;5034007;28;20037;-72
2024/01/10 11:18:59;;;;;;;37.63;16.47;;;;;;;;;;5039327;28;20029;-69
2024/01/10 11:21:37;;;;;;;37.53;17.33;;;;;;;;;;5040315;28;20159;-69
2024/01/10 11:24:04;;;;;;;43.70;17.23;;;;;;;;;;5023174;28;20325;-71
2024/01/10 11:26:33;;;;;;;48.77;17.20;;;;;;;;;;5036725;28;20025;-72
2024/01/10 11:29:00;;;;;;;38.40;17.20;;;;;;;;;;5032301;28;20352;-70
2024/01/10 11:31:30;;;;;;;44.90;18.17;;;;;;;;;;5034156;28;20021;-69
2024/01/10 11:34:01;;;;;;;55.57;19.67;;;;;;;;;;5024164;28;20033;-71
2024/01/10 11:36:27;;;;;;;36.40;15.23;;;;;;;;;;5035563;28;20243;-70
2024/01/10 11:38:56;;;;;;;37.87;17.17;;;;;;;;;;5036308;28;20028;-68
2024/01/10 11:41:32;;;;;;;41.77;16.40;;;;;;;;;;5035290;28;20024;-72
2024/01/10 11:44:17;;;;;;;34.47;14.83;;;;;;;;;;5037153;28;20028;-68
2024/01/10 11:46:47;;;;;;;40.83;17.57;;;;;;;;;;5037529;28;20025;-71
2024/01/10 11:49:16;;;;;;;41.27;15.83;;;;;;;;;;5026935;28;20063;-70
2024/01/10 11:51:57;;;;;;;43.27;17.37;;;;;;;;;;5012028;28;20119;-70
2024/01/10 11:54:40;;;;;;;45.10;17.45;;;;;;;;;;5029342;28;20413;-71
2024/01/10 11:57:21;;;;;;;35.43;16.03;;;;;;;;;;5028789;28;20480;-71
2024/01/10 11:59:50;;;;;;;33.83;15.87;;;;;;;;;;5043487;28;20476;-70
2024/01/10 12:02:17;;;;;;;38.67;16.93;;;;;;;;;;5035382;28;20021;-71
2024/01/10 12:04:43;;;;;;;42.93;17.67;;;;;;;;;;5032034;28;20222;-69
2024/01/10 12:07:08;;;;;;;36.50;15.67;;;;;;;;;;5039794;28;20029;-70
2024/01/10 12:09:35;;;;;;;46.43;15.93;;;;;;;;;;5042750;28;20044;-70
2024/01/10 12:12:02;;;;;;;39.70;14.90;;;;;;;;;;5042271;28;20025;-71
2024/01/10 12:14:28;;;;;;;37.13;15.73;;;;;;;;;;5039538;28;20143;-71
2024/01/10 12:16:56;;;;;;;37.77;16.57;;;;;;;;;;5035767;28;20878;-71
2024/01/10 12:19:21;;;;;;;43.53;17.13;;;;;;;;;;5040015;28;20033;-72
2024/01/10 12:21:48;;;;;;;37.50;14.80;;;;;;;;;;5039294;28;20383;-71
2024/01/10 12:24:14;;;;;;;34.07;15.60;;;;;;;;;;5034731;28;20105;-72
2024/01/10 12:26:48;;;;;;;40.77;15.30;;;;;;;;;;5041954;28;20484;-72
2024/01/10 12:29:22;;;;;;;35.80;14.47;;;;;;;;;;5032328;28;20756;-71
2024/01/10 12:31:48;;;;;;;44.47;15.83;;;;;;;;;;5035029;28;20565;-71
2024/01/10 12:34:17;;;;;;;33.27;14.17;;;;;;;;;;5040090;28;20053;-71
2024/01/10 12:36:43;;;;;;;38.10;15.93;;;;;;;;;;5024482;28;20119;-70
2024/01/10 12:39:23;;;;;;;35.43;15.67;;;;;;;;;;5040878;28;20412;-72
2024/01/10 12:41:50;;;;;;;36.73;15.53;;;;;;;;;;5040395;28;20036;-73
2024/01/10 12:44:16;;;;;;;38.97;15.60;;;;;;;;;;5034198;28;20736;-71
2024/01/10 12:46:52;;;;;;;40.57;15.77;;;;;;;;;;5040662;28;20027;-69
2024/01/10 12:49:18;;;;;;;39.13;14.63;;;;;;;;;;5042745;28;20083;-70
2024/01/10 12:51:43;;;;;;;35.87;15.37;;;;;;;;;;5030317;28;20033;-71
2024/01/10 12:54:09;;;;;;;40.07;15.77;;;;;;;;;;5027380;28;20124;-71
2024/01/10 12:56:35;;;;;;;37.20;15.90;;;;;;;;;;5038669;28;20035;-70
2024/01/10 12:59:00;;;;;;;36.37;15.57;;;;;;;;;;5040989;28;20021;-72
2024/01/10 13:01:26;;;;;;;40.97;16.70;;;;;;;;;;5040185;28;20096;-69
2024/01/10 13:03:52;;;;;;;38.70;15.27;;;;;;;;;;5037606;28;20036;-71
2024/01/10 13:06:19;;;;;;;30.57;14.37;;;;;;;;;;5042849;28;20520;-72
2024/01/10 13:08:45;;;;;;;40.57;15.87;;;;;;;;;;5043226;28;20033;-70
2024/01/10 13:11:12;;;;;;;40.07;15.93;;;;;;;;;;5037461;28;20465;-70
2024/01/10 13:13:37;;;;;;;42.37;16.07;;;;;;;;;;5042328;28;20033;-72
2024/01/10 13:16:03;;;;;;;35.00;15.77;;;;;;;;;;5022350;28;20048;-71
2024/01/10 13:18:29;;;;;;;35.63;15.43;;;;;;;;;;5027119;28;20148;-72
2024/01/10 13:20:56;;;;;;;36.70;14.57;;;;;;;;;;5034414;28;20115;-71
2024/01/10 13:23:24;;;;;;;33.37;15.10;;;;;;;;;;5036335;28;20291;-72
2024/01/10 13:25:52;;;;;;;33.83;14.30;;;;;;;;;;5035765;28;20017;-72
2024/01/10 13:28:21;;;;;;;37.50;14.37;;;;;;;;;;5042960;28;20059;-71
2024/01/10 13:30:46;;;;;;;32.00;13.83;;;;;;;;;;5043395;28;20491;-73
2024/01/10 13:33:13;;;;;;;30.97;13.97;;;;;;;;;;5038346;28;20036;-70
2024/01/10 13:35:39;;;;;;;34.27;13.80;;;;;;;;;;5040962;28;20025;-71
2024/01/10 13:38:06;;;;;;;28.53;13.43;;;;;;;;;;5038219;28;20519;-72
2024/01/10 13:40:33;;;;;;;32.93;13.50;;;;;;;;;;5042740;28;20027;-72
2024/01/10 13:43:03;;;;;;;36.40;14.53;;;;;;;;;;5044322;28;20036;-70
2024/01/10 13:45:29;;;;;;;34.93;13.40;;;;;;;;;;5038388;28;20075;-70
2024/01/10 13:47:55;;;;;;;31.10;11.83;;;;;;;;;;5036240;28;20025;-71
2024/01/10 13:50:21;;;;;;;27.57;14.03;;;;;;;;;;5043138;28;20026;-70
2024/01/10 13:52:47;;;;;;;29.40;11.60;;;;;;;;;;5043196;28;20167;-71
2024/01/10 13:55:14;;;;;;;32.47;13.07;;;;;;;;;;5032679;28;20127;-70
2024/01/10 13:57:41;;;;;;;29.07;11.97;;;;;;;;;;5038541;28;20028;-70
2024/01/10 14:00:07;;;;;;;32.53;14.57;;;;;;;;;;5035504;28;20037;-72
2024/01/10 14:02:38;;;;;;;24.63;11.17;;;;;;;;;;5025927;28;20139;-71
2024/01/10 14:05:08;;;;;;;33.50;12.00;;;;;;;;;;5023567;28;20119;-71
2024/01/10 14:07:35;;;;;;;30.23;13.53;;;;;;;;;;5036414;28;20597;-70
2024/01/10 14:10:02;;;;;;;30.53;13.43;;;;;;;;;;5044484;28;20124;-72
2024/01/10 14:12:31;;;;;;;23.80;10.27;;;;;;;;;;5031676;28;20033;-72
2024/01/10 14:14:59;;;;;;;29.57;11.93;;;;;;;;;;5037543;28;20037;-71
2024/01/10 14:17:25;;;;;;;29.27;11.87;;;;;;;;;;5034309;28;20052;-71
2024/01/10 14:19:52;;;;;;;18.47;10.90;;;;;;;;;;5045323;28;20032;-71